createdAt,value
2022-11-21T00:01:47.794Z,24.35
2022-11-21T00:04:18.769Z,22.00
2022-11-21T00:06:49.599Z,23.70
2022-11-21T00:09:23.505Z,24.23
2022-11-21T00:11:53.965Z,24.08
2022-11-21T00:14:22.607Z,23.83
2022-11-21T00:16:57.279Z,20.75
2022-11-21T00:19:26.553Z,25.02
2022-11-21T00:22:01.800Z,33.22
2022-11-21T00:24:42.878Z,23.17
2022-11-21T00:27:16.803Z,24.75
2022-11-21T00:29:47.307Z,23.25
2022-11-21T00:32:17.419Z,21.88
2022-11-21T00:34:52.016Z,22.75
2022-11-21T00:37:42.122Z,24.77
2022-11-21T00:41:10.909Z,23.77
2022-11-21T00:47:49.146Z,25.83
2022-11-21T00:50:17.837Z,24.30
2022-11-21T00:52:46.573Z,28.85
2022-11-21T00:55:18.126Z,23.25
2022-11-21T00:57:46.820Z,26.38
2022-11-21T01:00:16.340Z,31.17
2022-11-21T01:02:45.023Z,27.50
2022-11-21T01:05:14.965Z,24.00
2022-11-21T01:07:43.988Z,27.33
2022-11-21T01:10:12.485Z,25.77
2022-11-21T01:12:48.709Z,25.25
2022-11-21T01:15:21.166Z,22.83
2022-11-21T01:17:53.485Z,25.17
2022-11-21T01:20:24.338Z,30.70
2022-11-21T01:22:53.152Z,26.60
2022-11-21T01:25:23.763Z,26.58
2022-11-21T01:28:04.723Z,24.83
2022-11-21T01:30:34.488Z,30.48
2022-11-21T01:33:04.276Z,28.08
2022-11-21T01:35:34.620Z,26.55
2022-11-21T01:38:03.002Z,27.05
2022-11-21T01:40:31.522Z,27.83
2022-11-21T01:43:03.801Z,29.45
2022-11-21T01:45:55.531Z,32.85
2022-11-21T01:48:30.682Z,29.27
2022-11-21T01:51:05.426Z,26.73
2022-11-21T01:53:34.836Z,30.48
2022-11-21T01:56:03.831Z,27.25
2022-11-21T01:58:35.518Z,28.10
2022-11-21T02:01:04.505Z,32.97
2022-11-21T02:03:37.265Z,32.83
2022-11-21T02:06:11.155Z,27.83
2022-11-21T02:08:40.524Z,29.42
2022-11-21T02:11:19.163Z,27.20
2022-11-21T02:13:47.617Z,27.02
2022-11-21T02:16:16.397Z,23.92
2022-11-21T02:18:44.961Z,27.20
2022-11-21T02:21:27.512Z,26.67
2022-11-21T02:24:02.569Z,25.73
2022-11-21T02:26:35.249Z,30.17
2022-11-21T02:29:03.780Z,29.75
2022-11-21T02:31:32.625Z,30.77
2022-11-21T02:34:01.055Z,26.95
2022-11-21T02:36:40.410Z,28.75
2022-11-21T02:39:14.380Z,19.38
2022-11-21T02:41:52.275Z,27.90
2022-11-21T02:44:27.605Z,23.50
2022-11-21T02:46:56.152Z,23.27
2022-11-21T02:49:43.795Z,25.15
2022-11-21T02:52:12.162Z,19.98
2022-11-21T02:54:40.634Z,19.25
2022-11-21T02:57:10.522Z,23.63
2022-11-21T02:59:39.102Z,21.02
2022-11-21T03:02:07.590Z,23.83
2022-11-21T03:04:36.120Z,25.05
2022-11-21T03:07:05.415Z,25.80
2022-11-21T03:09:33.913Z,16.08
2022-11-21T03:12:07.364Z,18.73
2022-11-21T03:14:37.803Z,16.00
2022-11-21T03:17:06.296Z,17.77
2022-11-21T03:19:38.432Z,15.30
2022-11-21T03:22:07.164Z,15.18
2022-11-21T03:24:35.624Z,15.85
2022-11-21T03:27:03.989Z,16.02
2022-11-21T03:29:32.564Z,12.65
2022-11-21T03:32:02.388Z,18.77
2022-11-21T03:34:31.344Z,17.65
2022-11-21T03:36:59.950Z,13.88
2022-11-21T03:39:28.653Z,16.27
2022-11-21T03:41:58.150Z,16.38
2022-11-21T03:44:28.891Z,18.20
2022-11-21T03:46:57.507Z,19.52
2022-11-21T03:49:27.336Z,16.85
2022-11-21T03:51:55.699Z,19.00
2022-11-21T03:54:24.347Z,21.65
2022-11-21T03:56:52.850Z,23.95
2022-11-21T03:59:21.499Z,19.55
2022-11-21T04:01:49.979Z,15.00
2022-11-21T04:04:18.859Z,17.45
2022-11-21T04:06:49.114Z,18.23
2022-11-21T04:09:18.223Z,18.38
2022-11-21T04:11:48.221Z,16.65
2022-11-21T04:14:17.014Z,19.63
2022-11-21T04:16:46.508Z,18.80
2022-11-21T04:19:15.046Z,14.80
2022-11-21T04:21:45.866Z,17.83
2022-11-21T04:24:16.525Z,15.90
2022-11-21T04:26:45.366Z,17.70
2022-11-21T04:29:14.270Z,15.60
2022-11-21T04:31:42.677Z,17.17
2022-11-21T04:34:11.102Z,17.42
2022-11-21T04:36:40.403Z,15.70
2022-11-21T04:39:09.157Z,14.60
2022-11-21T04:41:39.788Z,15.32
2022-11-21T04:44:08.448Z,19.23
2022-11-21T04:46:37.011Z,18.15
2022-11-21T04:49:05.640Z,17.92
2022-11-21T04:51:42.335Z,19.85
2022-11-21T04:54:14.228Z,16.13
2022-11-21T04:56:44.712Z,18.20
2022-11-21T04:59:13.114Z,16.48
2022-11-21T05:01:41.598Z,17.67
2022-11-21T05:04:09.907Z,19.02
2022-11-21T05:06:38.362Z,17.92
2022-11-21T05:09:06.681Z,17.80
2022-11-21T05:11:52.754Z,21.30
2022-11-21T05:14:22.683Z,16.02
2022-11-21T05:16:52.299Z,72.60
2022-11-21T05:19:21.122Z,26.63
2022-11-21T05:21:53.073Z,16.83
2022-11-21T05:24:21.524Z,18.13
2022-11-21T05:26:49.993Z,19.65
2022-11-21T05:29:18.438Z,20.67
2022-11-21T05:31:48.669Z,21.27
2022-11-21T05:34:17.751Z,20.80
2022-11-21T05:36:47.577Z,18.27
2022-11-21T05:39:16.730Z,22.05
2022-11-21T05:41:45.075Z,19.80
2022-11-21T05:44:12.376Z,20.85
2022-11-21T05:46:41.618Z,21.75
2022-11-21T05:49:11.787Z,20.40
2022-11-21T05:51:40.522Z,22.13
2022-11-21T05:54:09.014Z,20.70
2022-11-21T05:56:37.384Z,18.50
2022-11-21T05:59:05.704Z,18.98
2022-11-21T06:01:51.515Z,25.13
2022-11-21T06:04:21.487Z,22.50
2022-11-21T06:06:49.885Z,21.95
2022-11-21T06:09:18.192Z,18.90
2022-11-21T06:11:46.520Z,21.27
2022-11-21T06:14:14.827Z,18.17
2022-11-21T06:16:43.156Z,16.20
2022-11-21T06:19:11.484Z,17.10
2022-11-21T06:21:41.248Z,18.38
2022-11-21T06:24:12.860Z,19.02
2022-11-21T06:26:43.735Z,15.85
2022-11-21T06:29:12.532Z,14.55
2022-11-21T06:31:40.887Z,16.88
2022-11-21T06:34:09.294Z,16.65
2022-11-21T06:36:37.605Z,14.82
2022-11-21T06:39:07.904Z,15.10
2022-11-21T06:41:36.609Z,14.80
2022-11-21T06:44:05.029Z,15.85
2022-11-21T06:46:33.331Z,19.38
2022-11-21T06:49:01.719Z,17.63
2022-11-21T06:51:30.009Z,17.77
2022-11-21T06:53:59.975Z,17.85
2022-11-21T06:56:31.554Z,16.80
2022-11-21T06:59:00.392Z,14.68
2022-11-21T07:01:29.183Z,18.77
2022-11-21T07:03:58.141Z,18.48
2022-11-21T07:06:27.310Z,18.65
2022-11-21T07:11:45.794Z,16.70
2022-11-21T07:14:13.110Z,18.25
2022-11-21T07:16:41.404Z,14.63
2022-11-21T07:19:10.533Z,17.55
2022-11-21T07:21:38.923Z,17.45
2022-11-21T07:24:07.855Z,17.27
2022-11-21T07:26:36.226Z,16.88
2022-11-21T07:29:06.006Z,20.30
2022-11-21T07:31:34.420Z,17.58
2022-11-21T07:34:02.728Z,17.60
2022-11-21T07:36:32.885Z,18.45
2022-11-21T07:39:03.695Z,18.38
2022-11-21T07:41:32.042Z,20.92
2022-11-21T07:44:00.371Z,19.00
2022-11-21T07:46:30.439Z,14.77
2022-11-21T07:49:03.095Z,17.88
2022-11-21T07:51:32.507Z,14.85
2022-11-21T07:54:00.778Z,15.52
2022-11-21T07:56:29.209Z,18.80
2022-11-21T07:58:57.554Z,16.58
2022-11-21T08:01:25.995Z,15.32
2022-11-21T08:03:55.794Z,16.83
2022-11-21T08:06:24.267Z,16.13
2022-11-21T08:08:54.837Z,23.08
2022-11-21T08:11:24.076Z,20.88
2022-11-21T08:13:53.938Z,21.33
2022-11-21T08:16:22.940Z,18.13
2022-11-21T08:18:51.390Z,27.25
2022-11-21T08:21:21.218Z,19.98
2022-11-21T08:23:50.126Z,17.13
2022-11-21T08:26:19.138Z,15.52
2022-11-21T08:28:47.920Z,17.27
2022-11-21T08:31:17.281Z,14.05
2022-11-21T08:33:46.589Z,22.35
2022-11-21T08:36:15.200Z,22.27
2022-11-21T08:38:46.338Z,19.70
2022-11-21T08:41:32.435Z,19.42
2022-11-21T08:44:02.169Z,18.90
2022-11-21T08:46:34.078Z,16.70
2022-11-21T08:49:02.661Z,17.15
2022-11-21T08:51:32.071Z,18.73
2022-11-21T08:54:02.674Z,16.25
2022-11-21T08:56:31.798Z,20.88
2022-11-21T08:59:01.346Z,17.92
2022-11-21T09:01:29.796Z,14.02
2022-11-21T09:03:58.583Z,20.88
2022-11-21T09:06:28.202Z,19.98
2022-11-21T09:08:56.997Z,18.20
2022-11-21T09:11:26.925Z,16.40
2022-11-21T09:14:21.666Z,17.75
2022-11-21T09:17:07.982Z,15.88
2022-11-21T09:19:37.075Z,16.95
2022-11-21T09:22:05.561Z,17.75
2022-11-21T09:24:34.580Z,19.65
2022-11-21T09:27:04.269Z,16.92
2022-11-21T09:29:33.077Z,16.85
2022-11-21T09:32:01.534Z,19.85
2022-11-21T09:34:31.810Z,17.65
2022-11-21T09:37:00.956Z,16.83
2022-11-21T09:39:29.515Z,17.70
2022-11-21T09:42:13.015Z,20.70
2022-11-21T09:44:57.662Z,19.52
2022-11-21T09:47:29.454Z,19.02
2022-11-21T09:50:01.459Z,18.83
2022-11-21T09:52:39.395Z,19.42
2022-11-21T09:55:18.346Z,19.42
2022-11-21T09:57:50.365Z,20.55
2022-11-21T10:00:22.448Z,16.35
2022-11-21T10:02:51.839Z,19.88
2022-11-21T10:05:30.657Z,22.08
2022-11-21T10:08:06.705Z,18.15
2022-11-21T10:10:51.840Z,19.42
2022-11-21T10:13:48.950Z,16.77
2022-11-21T10:16:31.143Z,20.90
2022-11-21T10:19:46.817Z,18.05
2022-11-21T10:22:32.712Z,15.85
2022-11-21T10:25:07.752Z,17.55
2022-11-21T10:27:42.479Z,18.33
2022-11-21T10:30:19.127Z,19.00
2022-11-21T10:32:51.519Z,15.13
2022-11-21T10:35:23.689Z,16.98
2022-11-21T10:37:54.113Z,15.05
2022-11-21T10:40:34.434Z,13.88
2022-11-21T10:43:24.045Z,12.55
2022-11-21T10:45:56.290Z,13.55
2022-11-21T10:48:24.665Z,15.52
2022-11-21T10:51:09.105Z,14.70
2022-11-21T10:53:54.803Z,13.07
2022-11-21T10:56:26.682Z,15.13
2022-11-21T10:58:57.278Z,15.52
2022-11-21T11:01:30.120Z,15.77
2022-11-21T11:04:27.864Z,13.25
2022-11-21T11:07:00.293Z,13.43
2022-11-21T11:09:47.193Z,16.27
2022-11-21T11:12:51.929Z,15.82
2022-11-21T11:15:25.134Z,13.75
2022-11-21T11:18:19.255Z,14.43
2022-11-21T11:20:48.496Z,12.40
2022-11-21T11:23:19.074Z,17.27
2022-11-21T11:25:49.350Z,18.33
2022-11-21T11:28:21.908Z,14.57
2022-11-21T11:30:53.222Z,13.65
2022-11-21T11:33:54.897Z,13.30
2022-11-21T11:36:47.186Z,15.02
2022-11-21T11:39:35.127Z,10.95
2022-11-21T11:42:43.581Z,14.13
2022-11-21T11:45:31.785Z,14.52
2022-11-21T11:48:01.580Z,17.00
2022-11-21T11:50:36.491Z,15.68
2022-11-21T11:53:12.811Z,14.77
2022-11-21T11:55:45.198Z,13.98
2022-11-21T11:58:23.011Z,15.10
2022-11-21T12:00:58.993Z,16.02
2022-11-21T12:03:38.128Z,15.35
2022-11-21T12:06:14.282Z,13.30
2022-11-21T12:08:49.692Z,16.92
2022-11-21T12:11:47.543Z,16.92
2022-11-21T12:14:55.272Z,15.07
2022-11-21T12:17:31.735Z,15.77
2022-11-21T12:20:04.218Z,14.23
2022-11-21T12:22:34.064Z,13.90
2022-11-21T12:25:04.957Z,11.88
2022-11-21T12:27:35.349Z,20.25
2022-11-21T12:30:26.758Z,19.08
2022-11-21T12:33:02.256Z,13.27
2022-11-21T12:35:52.695Z,18.15
2022-11-21T12:38:45.086Z,16.25
2022-11-21T12:41:37.928Z,20.80
2022-11-21T12:47:03.548Z,12.00
2022-11-21T12:49:58.147Z,14.77
2022-11-21T12:52:47.179Z,14.27
2022-11-21T12:55:35.513Z,13.90
2022-11-21T12:58:26.354Z,14.50
2022-11-21T13:01:10.203Z,14.43
2022-11-21T13:03:48.742Z,13.88
2022-11-21T13:06:25.011Z,14.25
2022-11-21T13:08:57.042Z,11.90
2022-11-21T13:12:00.841Z,13.52
2022-11-21T13:14:38.517Z,12.82
2022-11-21T13:17:20.485Z,11.60
2022-11-21T13:19:56.437Z,13.52
2022-11-21T13:22:52.948Z,14.00
2022-11-21T13:25:41.038Z,15.20
2022-11-21T13:28:41.155Z,15.43
2022-11-21T13:31:29.175Z,12.00
2022-11-21T13:34:01.527Z,10.45
2022-11-21T13:36:43.098Z,12.45
2022-11-21T13:39:39.777Z,13.55
2022-11-21T13:42:30.970Z,14.30
2022-11-21T13:45:40.509Z,11.75
2022-11-21T13:48:53.562Z,12.55
2022-11-21T13:51:53.737Z,15.80
2022-11-21T13:54:57.733Z,14.77
2022-11-21T13:57:45.866Z,15.95
2022-11-21T14:00:39.770Z,12.10
2022-11-21T14:03:35.745Z,13.82
2022-11-21T14:06:31.289Z,13.10
2022-11-21T14:09:18.240Z,14.15
2022-11-21T14:11:49.981Z,16.30
2022-11-21T14:14:38.153Z,13.52
2022-11-21T14:17:23.205Z,14.57
2022-11-21T14:19:53.237Z,19.80
2022-11-21T14:22:34.757Z,18.20
2022-11-21T14:25:09.374Z,12.57
2022-11-21T14:27:45.324Z,16.58
2022-11-21T14:30:32.983Z,16.73
2022-11-21T14:33:24.238Z,13.80
2022-11-21T14:35:56.596Z,18.05
2022-11-21T14:38:25.722Z,11.63
2022-11-21T14:41:28.896Z,13.27
2022-11-21T14:44:19.118Z,14.23
2022-11-21T14:46:48.497Z,14.75
2022-11-21T14:49:30.427Z,16.45
2022-11-21T14:52:19.564Z,12.88
2022-11-21T14:55:28.489Z,12.55
2022-11-21T14:57:43.963Z,14.90
2022-11-21T15:11:14.967Z,18.42
2022-11-21T15:14:12.167Z,14.38
2022-11-21T15:16:33.873Z,13.73
2022-11-21T15:19:02.358Z,13.50
2022-11-21T15:21:32.231Z,16.85
2022-11-21T15:24:17.380Z,13.63
2022-11-21T15:26:47.402Z,16.10
2022-11-21T15:29:23.621Z,17.08
2022-11-21T15:32:07.930Z,15.20
2022-11-21T15:34:37.091Z,16.13
2022-11-21T15:37:13.982Z,15.25
2022-11-21T15:39:45.920Z,16.50
2022-11-21T15:42:36.530Z,16.98
2022-11-21T15:45:23.366Z,14.65
2022-11-21T15:47:51.777Z,21.15
2022-11-21T15:50:23.599Z,14.65
2022-11-21T15:52:54.824Z,15.90
2022-11-21T15:55:28.323Z,16.98
2022-11-21T15:57:56.715Z,16.60
2022-11-21T16:00:25.789Z,18.55
2022-11-21T16:02:54.117Z,14.50
2022-11-21T16:05:23.811Z,15.55
2022-11-21T16:07:53.946Z,14.60
2022-11-21T16:10:27.754Z,14.00
2022-11-21T16:12:56.948Z,17.50
2022-11-21T16:15:25.736Z,16.13
2022-11-21T16:17:56.519Z,17.48
2022-11-21T16:20:24.895Z,22.95
2022-11-21T16:22:54.612Z,22.35
2022-11-21T16:25:24.274Z,23.80
2022-11-21T16:27:56.129Z,20.33
2022-11-21T16:30:27.598Z,22.85
2022-11-21T16:32:56.793Z,19.63
2022-11-21T16:35:27.780Z,16.75
2022-11-21T16:37:57.988Z,19.40
2022-11-21T16:40:26.394Z,14.85
2022-11-21T16:43:08.931Z,18.90
2022-11-21T16:45:37.671Z,18.30
2022-11-21T16:48:06.599Z,19.52
2022-11-21T16:50:35.194Z,18.77
2022-11-21T16:53:05.326Z,18.25
2022-11-21T16:55:33.595Z,19.77
2022-11-21T16:58:02.358Z,20.55
2022-11-21T17:00:30.761Z,19.20
2022-11-21T17:02:59.848Z,19.73
2022-11-21T17:05:29.628Z,19.90
2022-11-21T17:08:01.566Z,19.70
2022-11-21T17:10:34.104Z,19.85
2022-11-21T17:13:02.957Z,17.92
2022-11-21T17:15:31.361Z,18.83
2022-11-21T17:18:01.575Z,18.83
2022-11-21T17:20:32.029Z,18.13
2022-11-21T17:23:00.758Z,19.05
2022-11-21T17:25:31.735Z,16.60
2022-11-21T17:28:00.529Z,15.82
2022-11-21T17:30:29.018Z,15.90
2022-11-21T17:32:57.941Z,20.73
2022-11-21T17:35:27.561Z,17.52
2022-11-21T17:37:56.086Z,17.58
2022-11-21T17:40:27.828Z,17.10
2022-11-21T17:43:00.977Z,17.83
2022-11-21T17:45:29.638Z,20.08
2022-11-21T17:47:57.950Z,17.25
2022-11-21T17:50:27.758Z,18.15
2022-11-21T17:52:56.259Z,18.45
2022-11-21T17:55:25.706Z,17.98
2022-11-21T17:57:54.977Z,20.13
2022-11-21T18:00:24.851Z,16.77
2022-11-21T18:02:55.255Z,19.38
2022-11-21T18:05:24.122Z,16.30
2022-11-21T18:07:53.757Z,16.33
2022-11-21T18:10:42.343Z,20.10
2022-11-21T18:13:10.855Z,19.85
2022-11-21T18:15:42.219Z,17.05
2022-11-21T18:18:10.644Z,20.77
2022-11-21T18:20:39.072Z,19.52
2022-11-21T18:23:08.509Z,17.70
2022-11-21T18:25:42.588Z,18.10
2022-11-21T18:28:13.815Z,17.02
2022-11-21T18:31:06.545Z,19.15
2022-11-21T18:33:35.215Z,19.25
2022-11-21T18:36:04.397Z,19.08
2022-11-21T18:41:34.515Z,16.67
2022-11-21T18:44:06.752Z,19.25
2022-11-21T18:46:39.412Z,19.38
2022-11-21T18:49:08.605Z,20.35
2022-11-21T18:51:38.006Z,17.13
2022-11-21T18:54:09.760Z,19.50
2022-11-21T18:56:39.905Z,19.85
2022-11-21T18:59:11.255Z,22.13
2022-11-21T19:01:41.990Z,16.13
2022-11-21T19:04:13.349Z,22.40
2022-11-21T19:06:48.558Z,14.90
2022-11-21T19:09:26.852Z,19.70
2022-11-21T19:11:58.160Z,20.20
2022-11-21T19:14:28.749Z,22.20
2022-11-21T19:16:58.984Z,22.15
2022-11-21T19:19:34.653Z,18.60
2022-11-21T19:22:05.631Z,17.55
2022-11-21T19:24:36.943Z,21.38
2022-11-21T19:27:07.099Z,19.98
2022-11-21T19:29:36.234Z,20.73
2022-11-21T19:32:08.850Z,19.27
2022-11-21T19:34:37.237Z,19.45
2022-11-21T19:37:05.860Z,19.00
2022-11-21T19:39:36.704Z,21.50
2022-11-21T19:42:07.481Z,19.00
2022-11-21T19:44:36.141Z,23.30
2022-11-21T19:47:06.472Z,20.05
2022-11-21T19:49:35.942Z,22.83
2022-11-21T19:52:05.660Z,21.58
2022-11-21T19:54:50.498Z,21.52
2022-11-21T19:57:21.012Z,17.55
2022-11-21T19:59:49.480Z,18.42
2022-11-21T20:02:21.471Z,23.35
2022-11-21T20:04:51.048Z,21.77
2022-11-21T20:07:22.391Z,22.08
2022-11-21T20:09:50.888Z,25.88
2022-11-21T20:12:43.924Z,21.23
2022-11-21T20:15:14.183Z,20.30
2022-11-21T20:17:44.237Z,25.30
2022-11-21T20:20:13.888Z,21.30
2022-11-21T20:22:42.268Z,25.85
2022-11-21T20:25:11.710Z,20.23
2022-11-21T20:27:41.291Z,23.42
2022-11-21T20:30:13.498Z,17.85
2022-11-21T20:32:43.279Z,26.02
2022-11-21T20:35:11.999Z,20.95
2022-11-21T20:37:43.949Z,22.08
2022-11-21T20:40:13.521Z,24.77
2022-11-21T20:42:42.412Z,21.10
2022-11-21T20:48:09.868Z,24.08
2022-11-21T20:51:46.539Z,20.40
2022-11-21T20:53:51.947Z,21.20
2022-11-21T20:56:18.110Z,20.77
2022-11-21T20:58:50.120Z,20.60
2022-11-21T21:01:22.176Z,23.23
2022-11-21T21:03:52.521Z,20.08
2022-11-21T21:06:21.392Z,22.70
2022-11-21T21:08:49.979Z,24.25
2022-11-21T21:11:49.836Z,23.00
2022-11-21T21:14:09.594Z,21.80
2022-11-21T21:16:37.908Z,22.73
2022-11-21T21:19:07.615Z,25.73
2022-11-21T21:21:36.111Z,20.45
2022-11-21T21:24:07.024Z,23.33
2022-11-21T21:26:42.278Z,22.15
2022-11-21T21:29:13.218Z,24.42
2022-11-21T21:31:48.595Z,24.92
2022-11-21T21:34:20.285Z,23.75
2022-11-21T21:36:50.110Z,22.30
2022-11-21T21:39:19.778Z,20.48
2022-11-21T21:41:48.370Z,22.02
2022-11-21T21:44:17.368Z,23.85
2022-11-21T21:46:45.996Z,22.33
2022-11-21T21:49:15.899Z,21.35
2022-11-21T21:51:45.938Z,19.83
2022-11-21T21:54:19.912Z,23.95
2022-11-21T21:56:49.433Z,21.95
2022-11-21T21:59:18.426Z,24.35
2022-11-21T22:01:47.128Z,20.75
2022-11-21T22:04:15.896Z,22.33
2022-11-21T22:06:45.758Z,29.25
2022-11-21T22:09:14.170Z,24.02
2022-11-21T22:11:42.579Z,21.67
2022-11-21T22:14:14.654Z,24.08
2022-11-21T22:16:45.141Z,24.48
2022-11-21T22:19:15.637Z,27.77
2022-11-21T22:21:45.469Z,28.42
2022-11-21T22:24:31.553Z,24.73
2022-11-21T22:27:00.194Z,21.98
2022-11-21T22:29:28.893Z,21.33
2022-11-21T22:31:57.358Z,23.35
2022-11-21T22:34:26.748Z,22.55
2022-11-21T22:36:56.488Z,22.60
2022-11-21T22:39:26.654Z,23.08
2022-11-21T22:41:59.706Z,22.17
2022-11-21T22:44:28.953Z,21.15
2022-11-21T22:46:57.524Z,22.90
2022-11-21T22:49:26.343Z,22.88
2022-11-21T22:51:56.208Z,21.15
2022-11-21T22:54:24.671Z,23.20
2022-11-21T22:56:52.970Z,17.95
2022-11-21T22:59:21.724Z,25.10
2022-11-21T23:01:50.217Z,23.40
2022-11-21T23:04:19.300Z,20.90
2022-11-21T23:06:47.801Z,25.77
2022-11-21T23:09:17.558Z,24.42
2022-11-21T23:11:47.002Z,24.55
2022-11-21T23:14:15.345Z,24.67
2022-11-21T23:16:43.792Z,24.23
2022-11-21T23:19:12.098Z,20.00
2022-11-21T23:21:40.538Z,22.80
2022-11-21T23:24:09.258Z,22.95
2022-11-21T23:26:39.199Z,22.25
2022-11-21T23:29:09.095Z,21.92
2022-11-21T23:31:37.806Z,26.08
2022-11-21T23:34:06.611Z,25.15
2022-11-21T23:36:35.057Z,27.15
2022-11-21T23:39:15.093Z,26.58
2022-11-21T23:41:44.904Z,24.85
2022-11-21T23:44:13.193Z,24.17
2022-11-21T23:46:43.510Z,23.92
2022-11-21T23:49:12.099Z,21.45
2022-11-21T23:51:40.547Z,25.50
2022-11-21T23:54:08.870Z,28.45
2022-11-21T23:56:37.368Z,26.25
2022-11-21T23:59:07.107Z,27.48
